sensor_id;sensor_type;location;lat;lon;timestamp;pressure;altitude;pressure_sealevel;temperature;humidity
69127;BME280;56688;50.234;19.292;2023-03-04T00:00:15;98590.81;;;0.12;78.70
69127;BME280;56688;50.234;19.292;2023-03-04T00:02:42;98592.61;;;0.14;78.57
69127;BME280;56688;50.234;19.292;2023-03-04T00:05:09;98589.99;;;0.14;78.54
69127;BME280;56688;50.234;19.292;2023-03-04T00:07:36;98587.10;;;0.15;78.77
69127;BME280;56688;50.234;19.292;2023-03-04T00:10:04;98584.91;;;0.16;78.82
69127;BME280;56688;50.234;19.292;2023-03-04T00:12:31;98581.95;;;0.18;78.60
69127;BME280;56688;50.234;19.292;2023-03-04T00:14:57;98581.98;;;0.20;78.94
69127;BME280;56688;50.234;19.292;2023-03-04T00:17:24;98579.02;;;0.22;78.71
69127;BME280;56688;50.234;19.292;2023-03-04T00:19:51;98573.91;;;0.20;78.40
69127;BME280;56688;50.234;19.292;2023-03-04T00:22:18;98574.16;;;0.19;78.65
69127;BME280;56688;50.234;19.292;2023-03-04T00:24:45;98567.69;;;0.19;78.78
69127;BME280;56688;50.234;19.292;2023-03-04T00:27:11;98563.99;;;0.19;78.65
69127;BME280;56688;50.234;19.292;2023-03-04T00:29:38;98563.92;;;0.20;78.91
69127;BME280;56688;50.234;19.292;2023-03-04T00:32:05;98559.61;;;0.19;78.92
69127;BME280;56688;50.234;19.292;2023-03-04T00:34:32;98556.15;;;0.19;78.68
69127;BME280;56688;50.234;19.292;2023-03-04T00:37:00;98552.30;;;0.19;79.02
69127;BME280;56688;50.234;19.292;2023-03-04T00:39:29;98550.80;;;0.20;78.99
69127;BME280;56688;50.234;19.292;2023-03-04T00:41:55;98549.86;;;0.21;78.91
69127;BME280;56688;50.234;19.292;2023-03-04T00:44:22;98548.11;;;0.21;78.81
69127;BME280;56688;50.234;19.292;2023-03-04T00:46:49;98546.88;;;0.21;78.95
69127;BME280;56688;50.234;19.292;2023-03-04T00:49:16;98540.42;;;0.20;78.95
69127;BME280;56688;50.234;19.292;2023-03-04T00:51:43;98535.48;;;0.17;78.95
69127;BME280;56688;50.234;19.292;2023-03-04T00:54:10;98536.06;;;0.18;78.89
69127;BME280;56688;50.234;19.292;2023-03-04T00:56:37;98533.77;;;0.18;78.92
69127;BME280;56688;50.234;19.292;2023-03-04T00:59:04;98527.33;;;0.18;79.13
69127;BME280;56688;50.234;19.292;2023-03-04T01:01:30;98514.36;;;0.18;79.15
69127;BME280;56688;50.234;19.292;2023-03-04T01:03:57;98499.52;;;0.15;79.31
69127;BME280;56688;50.234;19.292;2023-03-04T01:06:25;98495.48;;;0.13;79.23
69127;BME280;56688;50.234;19.292;2023-03-04T01:08:52;98495.94;;;0.14;79.11
69127;BME280;56688;50.234;19.292;2023-03-04T01:11:19;98492.45;;;0.16;79.34
69127;BME280;56688;50.234;19.292;2023-03-04T01:13:46;98488.44;;;0.18;79.31
69127;BME280;56688;50.234;19.292;2023-03-04T01:16:12;98486.84;;;0.18;79.10
69127;BME280;56688;50.234;19.292;2023-03-04T01:18:39;98483.38;;;0.18;79.16
69127;BME280;56688;50.234;19.292;2023-03-04T01:21:07;98481.61;;;0.18;78.88
69127;BME280;56688;50.234;19.292;2023-03-04T01:23:34;98476.06;;;0.19;79.09
69127;BME280;56688;50.234;19.292;2023-03-04T01:26:01;98465.25;;;0.19;79.07
69127;BME280;56688;50.234;19.292;2023-03-04T01:28:28;98467.09;;;0.22;79.20
69127;BME280;56688;50.234;19.292;2023-03-04T01:30:55;98467.33;;;0.23;79.17
69127;BME280;56688;50.234;19.292;2023-03-04T01:33:22;98462.10;;;0.23;79.12
69127;BME280;56688;50.234;19.292;2023-03-04T01:35:49;98459.66;;;0.23;79.10
69127;BME280;56688;50.234;19.292;2023-03-04T01:38:16;98455.84;;;0.22;79.12
69127;BME280;56688;50.234;19.292;2023-03-04T01:40:42;98455.02;;;0.21;79.19
69127;BME280;56688;50.234;19.292;2023-03-04T01:43:17;98453.84;;;0.23;79.27
69127;BME280;56688;50.234;19.292;2023-03-04T01:45:47;98453.88;;;0.27;78.95
69127;BME280;56688;50.234;19.292;2023-03-04T01:48:18;98446.55;;;0.31;78.98
69127;BME280;56688;50.234;19.292;2023-03-04T01:50:48;98442.05;;;0.33;78.67
69127;BME280;56688;50.234;19.292;2023-03-04T01:53:19;98437.80;;;0.31;78.52
69127;BME280;56688;50.234;19.292;2023-03-04T01:55:48;98435.53;;;0.31;78.64
69127;BME280;56688;50.234;19.292;2023-03-04T01:58:15;98438.45;;;0.32;78.37
69127;BME280;56688;50.234;19.292;2023-03-04T02:00:42;98435.93;;;0.35;78.20
69127;BME280;56688;50.234;19.292;2023-03-04T02:03:14;98435.08;;;0.36;78.14
69127;BME280;56688;50.234;19.292;2023-03-04T02:05:43;98436.64;;;0.37;78.22
69127;BME280;56688;50.234;19.292;2023-03-04T02:08:13;98437.27;;;0.35;78.05
69127;BME280;56688;50.234;19.292;2023-03-04T02:10:41;98431.05;;;0.34;78.04
69127;BME280;56688;50.234;19.292;2023-03-04T02:13:09;98427.04;;;0.32;78.08
69127;BME280;56688;50.234;19.292;2023-03-04T02:15:37;98420.80;;;0.31;77.96
69127;BME280;56688;50.234;19.292;2023-03-04T02:18:14;98424.36;;;0.28;78.02
69127;BME280;56688;50.234;19.292;2023-03-04T02:23:50;98410.20;;;0.23;77.68
69127;BME280;56688;50.234;19.292;2023-03-04T02:26:22;98411.10;;;0.21;77.90
69127;BME280;56688;50.234;19.292;2023-03-04T02:28:52;98401.42;;;0.19;77.86
69127;BME280;56688;50.234;19.292;2023-03-04T02:31:24;98394.56;;;0.20;78.02
69127;BME280;56688;50.234;19.292;2023-03-04T02:33:53;98393.52;;;0.20;77.51
69127;BME280;56688;50.234;19.292;2023-03-04T02:36:22;98394.14;;;0.19;77.86
69127;BME280;56688;50.234;19.292;2023-03-04T02:38:51;98389.52;;;0.15;77.92
69127;BME280;56688;50.234;19.292;2023-03-04T02:41:23;98389.37;;;0.15;78.05
69127;BME280;56688;50.234;19.292;2023-03-04T02:43:53;98384.26;;;0.15;77.90
69127;BME280;56688;50.234;19.292;2023-03-04T02:46:21;98382.85;;;0.15;77.88
69127;BME280;56688;50.234;19.292;2023-03-04T02:48:50;98384.36;;;0.16;77.63
69127;BME280;56688;50.234;19.292;2023-03-04T02:51:17;98380.06;;;0.17;77.70
69127;BME280;56688;50.234;19.292;2023-03-04T02:53:44;98374.55;;;0.16;77.73
69127;BME280;56688;50.234;19.292;2023-03-04T02:56:11;98373.02;;;0.13;77.68
69127;BME280;56688;50.234;19.292;2023-03-04T02:58:38;98374.05;;;0.14;77.73
69127;BME280;56688;50.234;19.292;2023-03-04T03:01:07;98368.31;;;0.15;77.89
69127;BME280;56688;50.234;19.292;2023-03-04T03:03:34;98365.45;;;0.16;78.13
69127;BME280;56688;50.234;19.292;2023-03-04T03:06:02;98363.83;;;0.17;77.79
69127;BME280;56688;50.234;19.292;2023-03-04T03:08:29;98363.39;;;0.16;77.77
69127;BME280;56688;50.234;19.292;2023-03-04T03:10:56;98359.93;;;0.13;77.96
69127;BME280;56688;50.234;19.292;2023-03-04T03:13:24;98366.35;;;0.13;78.16
69127;BME280;56688;50.234;19.292;2023-03-04T03:15:51;98361.58;;;0.14;78.01
69127;BME280;56688;50.234;19.292;2023-03-04T03:18:18;98362.17;;;0.15;77.90
69127;BME280;56688;50.234;19.292;2023-03-04T03:20:45;98361.80;;;0.16;77.80
69127;BME280;56688;50.234;19.292;2023-03-04T03:23:12;98362.44;;;0.17;77.68
69127;BME280;56688;50.234;19.292;2023-03-04T03:25:39;98365.02;;;0.19;77.87
69127;BME280;56688;50.234;19.292;2023-03-04T03:28:06;98365.50;;;0.20;77.88
69127;BME280;56688;50.234;19.292;2023-03-04T03:30:33;98367.95;;;0.18;77.48
69127;BME280;56688;50.234;19.292;2023-03-04T03:33:02;98364.02;;;0.17;77.79
69127;BME280;56688;50.234;19.292;2023-03-04T03:35:29;98361.58;;;0.16;77.72
69127;BME280;56688;50.234;19.292;2023-03-04T03:37:56;98366.08;;;0.19;77.37
69127;BME280;56688;50.234;19.292;2023-03-04T03:40:23;98363.36;;;0.20;77.38
69127;BME280;56688;50.234;19.292;2023-03-04T03:42:50;98366.13;;;0.19;77.62
69127;BME280;56688;50.234;19.292;2023-03-04T03:45:16;98366.09;;;0.17;77.48
69127;BME280;56688;50.234;19.292;2023-03-04T03:47:43;98365.44;;;0.14;77.87
69127;BME280;56688;50.234;19.292;2023-03-04T03:50:11;98357.19;;;0.10;77.68
69127;BME280;56688;50.234;19.292;2023-03-04T03:52:38;98357.91;;;0.12;77.55
69127;BME280;56688;50.234;19.292;2023-03-04T03:55:05;98354.26;;;0.12;77.79
69127;BME280;56688;50.234;19.292;2023-03-04T03:57:32;98350.94;;;0.10;77.86
69127;BME280;56688;50.234;19.292;2023-03-04T04:00:00;98354.52;;;0.13;78.20
69127;BME280;56688;50.234;19.292;2023-03-04T04:02:38;98358.31;;;0.13;77.94
69127;BME280;56688;50.234;19.292;2023-03-04T04:05:06;98354.90;;;0.12;77.61
69127;BME280;56688;50.234;19.292;2023-03-04T04:07:33;98353.10;;;0.11;78.17
69127;BME280;56688;50.234;19.292;2023-03-04T04:10:00;98359.10;;;0.10;78.11
69127;BME280;56688;50.234;19.292;2023-03-04T04:12:27;98362.00;;;0.11;78.13
69127;BME280;56688;50.234;19.292;2023-03-04T04:14:54;98358.38;;;0.11;78.17
69127;BME280;56688;50.234;19.292;2023-03-04T04:17:21;98354.15;;;0.07;78.12
69127;BME280;56688;50.234;19.292;2023-03-04T04:19:47;98353.20;;;0.03;78.34
69127;BME280;56688;50.234;19.292;2023-03-04T04:22:17;98350.86;;;-0.01;78.42
69127;BME280;56688;50.234;19.292;2023-03-04T04:24:44;98346.84;;;-0.03;78.66
69127;BME280;56688;50.234;19.292;2023-03-04T04:27:11;98347.54;;;-0.03;78.76
69127;BME280;56688;50.234;19.292;2023-03-04T04:29:38;98344.27;;;-0.02;78.75
69127;BME280;56688;50.234;19.292;2023-03-04T04:32:05;98346.38;;;-0.01;78.69
69127;BME280;56688;50.234;19.292;2023-03-04T04:34:32;98345.73;;;0.00;78.69
69127;BME280;56688;50.234;19.292;2023-03-04T04:36:59;98344.92;;;-0.01;78.80
69127;BME280;56688;50.234;19.292;2023-03-04T04:39:26;98347.05;;;-0.03;78.64
69127;BME280;56688;50.234;19.292;2023-03-04T04:41:53;98343.34;;;-0.07;78.98
69127;BME280;56688;50.234;19.292;2023-03-04T04:44:20;98340.09;;;-0.08;79.15
69127;BME280;56688;50.234;19.292;2023-03-04T04:46:47;98342.59;;;-0.09;78.97
69127;BME280;56688;50.234;19.292;2023-03-04T04:49:13;98340.27;;;-0.06;79.34
69127;BME280;56688;50.234;19.292;2023-03-04T04:51:40;98340.58;;;-0.03;79.18
69127;BME280;56688;50.234;19.292;2023-03-04T04:54:07;98340.52;;;-0.05;79.16
69127;BME280;56688;50.234;19.292;2023-03-04T04:56:34;98340.30;;;-0.04;79.10
69127;BME280;56688;50.234;19.292;2023-03-04T04:59:03;98341.84;;;-0.02;79.22
69127;BME280;56688;50.234;19.292;2023-03-04T05:01:30;98342.39;;;0.03;78.95
69127;BME280;56688;50.234;19.292;2023-03-04T05:03:57;98341.98;;;0.06;79.01
69127;BME280;56688;50.234;19.292;2023-03-04T05:06:25;98335.33;;;0.10;78.86
69127;BME280;56688;50.234;19.292;2023-03-04T05:08:52;98338.31;;;0.14;78.88
69127;BME280;56688;50.234;19.292;2023-03-04T05:11:19;98333.25;;;0.16;78.73
69127;BME280;56688;50.234;19.292;2023-03-04T05:13:47;98331.27;;;0.16;78.69
69127;BME280;56688;50.234;19.292;2023-03-04T05:16:15;98325.90;;;0.16;78.44
69127;BME280;56688;50.234;19.292;2023-03-04T05:18:42;98325.39;;;0.11;78.31
69127;BME280;56688;50.234;19.292;2023-03-04T05:21:09;98322.27;;;0.07;78.30
69127;BME280;56688;50.234;19.292;2023-03-04T05:23:39;98326.13;;;0.04;78.39
69127;BME280;56688;50.234;19.292;2023-03-04T05:26:08;98327.27;;;0.05;78.38
69127;BME280;56688;50.234;19.292;2023-03-04T05:28:36;98321.33;;;0.05;78.35
69127;BME280;56688;50.234;19.292;2023-03-04T05:31:04;98323.45;;;0.03;77.79
69127;BME280;56688;50.234;19.292;2023-03-04T05:33:30;98324.03;;;0.00;77.59
69127;BME280;56688;50.234;19.292;2023-03-04T05:35:58;98322.77;;;-0.02;77.55
69127;BME280;56688;50.234;19.292;2023-03-04T05:38:25;98319.59;;;-0.06;77.33
69127;BME280;56688;50.234;19.292;2023-03-04T05:40:58;98318.13;;;-0.07;77.23
69127;BME280;56688;50.234;19.292;2023-03-04T05:43:26;98322.56;;;-0.08;77.01
69127;BME280;56688;50.234;19.292;2023-03-04T05:45:54;98314.45;;;-0.07;77.18
69127;BME280;56688;50.234;19.292;2023-03-04T05:48:21;98312.07;;;-0.08;76.88
69127;BME280;56688;50.234;19.292;2023-03-04T05:50:57;98316.09;;;-0.07;76.99
69127;BME280;56688;50.234;19.292;2023-03-04T05:53:24;98307.80;;;-0.09;76.67
69127;BME280;56688;50.234;19.292;2023-03-04T05:55:51;98319.83;;;-0.08;76.67
69127;BME280;56688;50.234;19.292;2023-03-04T05:58:19;98322.71;;;-0.07;76.62
69127;BME280;56688;50.234;19.292;2023-03-04T06:00:46;98320.29;;;-0.05;76.56
69127;BME280;56688;50.234;19.292;2023-03-04T06:03:14;98316.63;;;-0.02;76.56
69127;BME280;56688;50.234;19.292;2023-03-04T06:05:41;98319.88;;;0.02;76.39
69127;BME280;56688;50.234;19.292;2023-03-04T06:08:09;98311.89;;;0.03;76.06
69127;BME280;56688;50.234;19.292;2023-03-04T06:10:39;98302.84;;;-0.02;75.79
69127;BME280;56688;50.234;19.292;2023-03-04T06:13:06;98309.98;;;-0.04;76.17
69127;BME280;56688;50.234;19.292;2023-03-04T06:15:33;98304.10;;;-0.03;75.80
69127;BME280;56688;50.234;19.292;2023-03-04T06:18:00;98303.13;;;-0.03;75.75
69127;BME280;56688;50.234;19.292;2023-03-04T06:20:27;98304.34;;;-0.05;75.85
69127;BME280;56688;50.234;19.292;2023-03-04T06:22:54;98302.44;;;-0.05;76.14
69127;BME280;56688;50.234;19.292;2023-03-04T06:25:21;98299.70;;;-0.06;75.95
69127;BME280;56688;50.234;19.292;2023-03-04T06:27:48;98295.27;;;-0.08;75.78
69127;BME280;56688;50.234;19.292;2023-03-04T06:30:17;98298.12;;;-0.08;75.86
69127;BME280;56688;50.234;19.292;2023-03-04T06:32:45;98299.14;;;-0.06;75.82
69127;BME280;56688;50.234;19.292;2023-03-04T06:35:14;98299.92;;;-0.03;76.00
69127;BME280;56688;50.234;19.292;2023-03-04T06:37:42;98303.23;;;-0.01;75.51
69127;BME280;56688;50.234;19.292;2023-03-04T06:40:24;98308.86;;;-0.00;75.58
69127;BME280;56688;50.234;19.292;2023-03-04T06:42:51;98305.25;;;0.01;75.56
69127;BME280;56688;50.234;19.292;2023-03-04T06:45:18;98321.91;;;-0.02;75.37
69127;BME280;56688;50.234;19.292;2023-03-04T06:47:45;98325.65;;;-0.01;75.24
69127;BME280;56688;50.234;19.292;2023-03-04T06:50:12;98324.50;;;0.03;74.78
69127;BME280;56688;50.234;19.292;2023-03-04T06:52:39;98329.41;;;0.05;74.62
69127;BME280;56688;50.234;19.292;2023-03-04T06:55:08;98339.05;;;0.05;74.60
69127;BME280;56688;50.234;19.292;2023-03-04T06:57:35;98328.35;;;0.05;74.62
69127;BME280;56688;50.234;19.292;2023-03-04T07:00:02;98340.55;;;0.06;74.62
69127;BME280;56688;50.234;19.292;2023-03-04T07:02:29;98344.36;;;0.09;74.72
69127;BME280;56688;50.234;19.292;2023-03-04T07:04:56;98342.70;;;0.12;74.68
69127;BME280;56688;50.234;19.292;2023-03-04T07:07:23;98344.19;;;0.15;74.52
69127;BME280;56688;50.234;19.292;2023-03-04T07:09:51;98345.48;;;0.16;74.39
69127;BME280;56688;50.234;19.292;2023-03-04T07:12:18;98342.55;;;0.16;74.63
69127;BME280;56688;50.234;19.292;2023-03-04T07:14:45;98341.77;;;0.14;74.46
69127;BME280;56688;50.234;19.292;2023-03-04T07:17:12;98343.77;;;0.15;74.24
69127;BME280;56688;50.234;19.292;2023-03-04T07:19:39;98341.29;;;0.18;74.01
69127;BME280;56688;50.234;19.292;2023-03-04T07:22:07;98340.14;;;0.23;74.31
69127;BME280;56688;50.234;19.292;2023-03-04T07:24:34;98340.84;;;0.30;73.88
69127;BME280;56688;50.234;19.292;2023-03-04T07:27:01;98342.45;;;0.34;73.96
69127;BME280;56688;50.234;19.292;2023-03-04T07:29:28;98337.30;;;0.32;73.55
69127;BME280;56688;50.234;19.292;2023-03-04T07:31:55;98338.52;;;0.33;73.81
69127;BME280;56688;50.234;19.292;2023-03-04T07:34:22;98342.06;;;0.32;73.65
69127;BME280;56688;50.234;19.292;2023-03-04T07:36:49;98348.44;;;0.34;73.18
69127;BME280;56688;50.234;19.292;2023-03-04T07:39:16;98351.34;;;0.36;73.41
69127;BME280;56688;50.234;19.292;2023-03-04T07:41:42;98346.88;;;0.37;73.41
69127;BME280;56688;50.234;19.292;2023-03-04T07:44:11;98345.77;;;0.40;73.34
69127;BME280;56688;50.234;19.292;2023-03-04T07:46:39;98346.30;;;0.42;72.91
69127;BME280;56688;50.234;19.292;2023-03-04T07:49:06;98339.92;;;0.41;72.62
69127;BME280;56688;50.234;19.292;2023-03-04T07:51:33;98340.40;;;0.39;72.51
69127;BME280;56688;50.234;19.292;2023-03-04T07:54:01;98343.95;;;0.43;72.45
69127;BME280;56688;50.234;19.292;2023-03-04T07:56:30;98343.52;;;0.48;72.24
69127;BME280;56688;50.234;19.292;2023-03-04T07:58:59;98345.24;;;0.50;72.16
69127;BME280;56688;50.234;19.292;2023-03-04T08:01:29;98344.04;;;0.52;72.15
69127;BME280;56688;50.234;19.292;2023-03-04T08:03:57;98346.09;;;0.55;72.05
69127;BME280;56688;50.234;19.292;2023-03-04T08:06:25;98348.13;;;0.56;71.90
69127;BME280;56688;50.234;19.292;2023-03-04T08:08:56;98343.21;;;0.52;71.83
69127;BME280;56688;50.234;19.292;2023-03-04T08:11:23;98349.34;;;0.54;71.86
69127;BME280;56688;50.234;19.292;2023-03-04T08:13:50;98348.52;;;0.55;71.70
69127;BME280;56688;50.234;19.292;2023-03-04T08:16:21;98350.36;;;0.59;71.37
69127;BME280;56688;50.234;19.292;2023-03-04T08:18:51;98350.95;;;0.60;71.32
69127;BME280;56688;50.234;19.292;2023-03-04T08:21:19;98351.09;;;0.64;70.93
69127;BME280;56688;50.234;19.292;2023-03-04T08:23:47;98361.39;;;0.65;70.76
69127;BME280;56688;50.234;19.292;2023-03-04T08:26:18;98363.34;;;0.67;70.46
69127;BME280;56688;50.234;19.292;2023-03-04T08:28:46;98360.25;;;0.66;70.11
69127;BME280;56688;50.234;19.292;2023-03-04T08:31:14;98362.11;;;0.67;69.54
69127;BME280;56688;50.234;19.292;2023-03-04T08:33:42;98360.08;;;0.70;69.99
69127;BME280;56688;50.234;19.292;2023-03-04T08:36:11;98358.18;;;0.76;69.52
69127;BME280;56688;50.234;19.292;2023-03-04T08:38:38;98361.47;;;0.76;68.72
69127;BME280;56688;50.234;19.292;2023-03-04T08:41:05;98357.76;;;0.72;69.04
69127;BME280;56688;50.234;19.292;2023-03-04T08:43:32;98354.48;;;0.74;69.01
69127;BME280;56688;50.234;19.292;2023-03-04T08:45:59;98357.24;;;0.76;68.80
69127;BME280;56688;50.234;19.292;2023-03-04T08:48:26;98360.26;;;0.76;68.94
69127;BME280;56688;50.234;19.292;2023-03-04T08:50:53;98356.96;;;0.75;68.61
69127;BME280;56688;50.234;19.292;2023-03-04T08:53:21;98351.69;;;0.73;68.64
69127;BME280;56688;50.234;19.292;2023-03-04T08:55:49;98353.94;;;0.74;68.72
69127;BME280;56688;50.234;19.292;2023-03-04T08:58:16;98349.34;;;0.74;68.60
69127;BME280;56688;50.234;19.292;2023-03-04T09:00:47;98352.16;;;0.74;68.70
69127;BME280;56688;50.234;19.292;2023-03-04T09:03:15;98349.89;;;0.76;68.61
69127;BME280;56688;50.234;19.292;2023-03-04T09:05:46;98352.34;;;0.76;68.86
69127;BME280;56688;50.234;19.292;2023-03-04T09:08:13;98350.20;;;0.80;69.00
69127;BME280;56688;50.234;19.292;2023-03-04T09:10:41;98345.63;;;0.88;68.65
69127;BME280;56688;50.234;19.292;2023-03-04T09:13:08;98347.36;;;0.89;68.36
69127;BME280;56688;50.234;19.292;2023-03-04T09:15:37;98347.77;;;0.93;68.65
69127;BME280;56688;50.234;19.292;2023-03-04T09:18:09;98343.11;;;0.96;68.24
69127;BME280;56688;50.234;19.292;2023-03-04T09:20:36;98339.13;;;0.95;68.20
69127;BME280;56688;50.234;19.292;2023-03-04T09:23:03;98347.88;;;0.94;68.43
69127;BME280;56688;50.234;19.292;2023-03-04T09:25:30;98343.86;;;0.96;68.27
69127;BME280;56688;50.234;19.292;2023-03-04T09:27:56;98343.86;;;0.96;68.46
69127;BME280;56688;50.234;19.292;2023-03-04T09:30:23;98341.09;;;0.97;68.48
69127;BME280;56688;50.234;19.292;2023-03-04T09:32:51;98345.96;;;0.97;68.51
69127;BME280;56688;50.234;19.292;2023-03-04T09:35:18;98343.66;;;1.00;68.76
69127;BME280;56688;50.234;19.292;2023-03-04T09:37:45;98336.41;;;0.98;68.72
69127;BME280;56688;50.234;19.292;2023-03-04T09:40:36;98341.52;;;0.94;68.82
69127;BME280;56688;50.234;19.292;2023-03-04T09:43:06;98339.80;;;0.94;68.87
69127;BME280;56688;50.234;19.292;2023-03-04T09:45:41;98341.27;;;0.93;68.79
69127;BME280;56688;50.234;19.292;2023-03-04T09:48:16;98343.20;;;0.91;68.80
69127;BME280;56688;50.234;19.292;2023-03-04T09:53:39;98338.72;;;0.84;69.81
69127;BME280;56688;50.234;19.292;2023-03-04T09:56:10;98340.81;;;0.84;69.47
69127;BME280;56688;50.234;19.292;2023-03-04T09:58:52;98336.39;;;0.85;69.68
69127;BME280;56688;50.234;19.292;2023-03-04T10:01:29;98338.80;;;0.85;69.76
69127;BME280;56688;50.234;19.292;2023-03-04T10:04:02;98344.21;;;0.87;70.05
69127;BME280;56688;50.234;19.292;2023-03-04T10:06:32;98340.31;;;0.88;69.87
69127;BME280;56688;50.234;19.292;2023-03-04T10:09:03;98334.35;;;0.86;69.65
69127;BME280;56688;50.234;19.292;2023-03-04T10:11:39;98333.33;;;0.90;69.88
69127;BME280;56688;50.234;19.292;2023-03-04T10:16:58;98321.18;;;0.94;69.64
69127;BME280;56688;50.234;19.292;2023-03-04T10:22:00;98317.70;;;0.96;69.70
69127;BME280;56688;50.234;19.292;2023-03-04T10:24:31;98317.34;;;0.98;69.94
69127;BME280;56688;50.234;19.292;2023-03-04T10:27:04;98316.61;;;0.98;70.08
69127;BME280;56688;50.234;19.292;2023-03-04T10:29:32;98313.51;;;1.00;70.40
69127;BME280;56688;50.234;19.292;2023-03-04T10:31:59;98314.33;;;1.04;70.23
69127;BME280;56688;50.234;19.292;2023-03-04T10:34:26;98308.61;;;1.11;70.03
69127;BME280;56688;50.234;19.292;2023-03-04T10:37:02;98307.56;;;1.16;69.83
69127;BME280;56688;50.234;19.292;2023-03-04T10:39:36;98300.78;;;1.15;69.97
69127;BME280;56688;50.234;19.292;2023-03-04T10:44:53;98301.99;;;1.11;70.30
69127;BME280;56688;50.234;19.292;2023-03-04T10:47:24;98296.73;;;1.11;70.51
69127;BME280;56688;50.234;19.292;2023-03-04T10:49:54;98293.80;;;1.10;70.53
69127;BME280;56688;50.234;19.292;2023-03-04T10:54:59;98290.69;;;1.16;70.88
69127;BME280;56688;50.234;19.292;2023-03-04T10:59:57;98280.46;;;1.23;70.80
69127;BME280;56688;50.234;19.292;2023-03-04T11:02:32;98277.78;;;1.19;70.90
69127;BME280;56688;50.234;19.292;2023-03-04T11:07:38;98267.92;;;1.18;71.21
69127;BME280;56688;50.234;19.292;2023-03-04T11:10:26;98262.80;;;1.20;71.28
69127;BME280;56688;50.234;19.292;2023-03-04T11:13:00;98263.76;;;1.23;71.67
69127;BME280;56688;50.234;19.292;2023-03-04T11:15:29;98264.20;;;1.26;71.67
69127;BME280;56688;50.234;19.292;2023-03-04T11:18:00;98265.39;;;1.26;71.46
69127;BME280;56688;50.234;19.292;2023-03-04T11:20:36;98268.61;;;1.24;71.55
69127;BME280;56688;50.234;19.292;2023-03-04T11:23:16;98271.09;;;1.25;71.79
69127;BME280;56688;50.234;19.292;2023-03-04T11:25:47;98267.08;;;1.27;72.06
69127;BME280;56688;50.234;19.292;2023-03-04T11:28:19;98266.83;;;1.28;72.22
69127;BME280;56688;50.234;19.292;2023-03-04T11:30:52;98266.61;;;1.27;72.47
69127;BME280;56688;50.234;19.292;2023-03-04T11:33:26;98263.79;;;1.23;72.69
69127;BME280;56688;50.234;19.292;2023-03-04T11:36:05;98252.94;;;1.22;73.08
69127;BME280;56688;50.234;19.292;2023-03-04T11:38:41;98249.45;;;1.22;73.52
69127;BME280;56688;50.234;19.292;2023-03-04T11:41:13;98249.74;;;1.21;73.68
69127;BME280;56688;50.234;19.292;2023-03-04T11:43:44;98244.55;;;1.18;73.50
69127;BME280;56688;50.234;19.292;2023-03-04T11:52:23;98244.86;;;1.10;74.12
69127;BME280;56688;50.234;19.292;2023-03-04T12:05:23;98229.89;;;1.16;74.94
69127;BME280;56688;50.234;19.292;2023-03-04T12:07:58;98230.94;;;1.15;74.24
69127;BME280;56688;50.234;19.292;2023-03-04T12:10:48;98226.57;;;1.17;74.67
69127;BME280;56688;50.234;19.292;2023-03-04T12:27:19;98218.56;;;1.46;73.88
69127;BME280;56688;50.234;19.292;2023-03-04T12:32:42;98212.66;;;1.51;73.22
69127;BME280;56688;50.234;19.292;2023-03-04T12:40:46;98206.56;;;1.68;72.55
69127;BME280;56688;50.234;19.292;2023-03-04T12:48:58;98194.52;;;1.88;71.82
69127;BME280;56688;50.234;19.292;2023-03-04T12:51:38;98195.67;;;1.94;71.55
69127;BME280;56688;50.234;19.292;2023-03-04T12:59:45;98188.01;;;2.02;71.36
69127;BME280;56688;50.234;19.292;2023-03-04T13:05:23;98184.98;;;2.11;70.60
69127;BME280;56688;50.234;19.292;2023-03-04T13:10:26;98183.42;;;2.07;70.69
69127;BME280;56688;50.234;19.292;2023-03-04T13:12:58;98178.48;;;2.08;70.62
69127;BME280;56688;50.234;19.292;2023-03-04T13:17:58;98182.22;;;2.09;70.86
69127;BME280;56688;50.234;19.292;2023-03-04T13:22:57;98177.03;;;2.12;70.19
69127;BME280;56688;50.234;19.292;2023-03-04T13:25:44;98176.98;;;2.09;70.11
69127;BME280;56688;50.234;19.292;2023-03-04T13:28:14;98173.89;;;2.06;70.21
69127;BME280;56688;50.234;19.292;2023-03-04T13:43:40;98168.57;;;2.01;70.58
69127;BME280;56688;50.234;19.292;2023-03-04T13:59:01;98154.92;;;1.96;70.86
69127;BME280;56688;50.234;19.292;2023-03-04T14:01:31;98153.59;;;1.95;71.01
69127;BME280;56688;50.234;19.292;2023-03-04T14:03:59;98151.02;;;1.95;71.20
69127;BME280;56688;50.234;19.292;2023-03-04T14:06:29;98150.73;;;1.96;70.90
69127;BME280;56688;50.234;19.292;2023-03-04T14:08:56;98149.11;;;1.98;71.17
69127;BME280;56688;50.234;19.292;2023-03-04T14:11:33;98148.70;;;1.99;71.29
69127;BME280;56688;50.234;19.292;2023-03-04T14:14:04;98148.92;;;2.01;71.19
69127;BME280;56688;50.234;19.292;2023-03-04T14:16:38;98150.15;;;2.01;71.56
69127;BME280;56688;50.234;19.292;2023-03-04T14:19:11;98144.15;;;2.03;71.19
69127;BME280;56688;50.234;19.292;2023-03-04T14:21:44;98146.70;;;2.04;71.53
69127;BME280;56688;50.234;19.292;2023-03-04T14:24:15;98146.98;;;2.03;71.82
69127;BME280;56688;50.234;19.292;2023-03-04T14:26:42;98140.70;;;2.00;71.81
69127;BME280;56688;50.234;19.292;2023-03-04T14:29:25;98142.30;;;2.00;72.13
69127;BME280;56688;50.234;19.292;2023-03-04T14:31:53;98140.55;;;2.02;72.21
69127;BME280;56688;50.234;19.292;2023-03-04T14:34:31;98136.05;;;2.03;72.07
69127;BME280;56688;50.234;19.292;2023-03-04T14:36:59;98134.23;;;2.03;71.88
69127;BME280;56688;50.234;19.292;2023-03-04T14:39:29;98137.67;;;2.04;72.08
69127;BME280;56688;50.234;19.292;2023-03-04T14:42:00;98139.29;;;2.04;72.16
69127;BME280;56688;50.234;19.292;2023-03-04T14:44:34;98142.22;;;2.05;72.16
69127;BME280;56688;50.234;19.292;2023-03-04T14:47:11;98137.65;;;2.06;71.95
69127;BME280;56688;50.234;19.292;2023-03-04T14:49:43;98139.41;;;2.10;71.81
69127;BME280;56688;50.234;19.292;2023-03-04T14:52:26;98137.05;;;2.12;71.57
69127;BME280;56688;50.234;19.292;2023-03-04T14:57:53;98134.02;;;2.18;71.18
69127;BME280;56688;50.234;19.292;2023-03-04T15:00:29;98135.70;;;2.23;70.99